sensor_id;sensor_type;location;lat;lon;timestamp;temperature;humidity
12720;DHT22;6424;48.520;11.228;2022-10-17T00:01:13;13.60;99.90
12720;DHT22;6424;48.520;11.228;2022-10-17T00:03:54;13.50;99.90
12720;DHT22;6424;48.520;11.228;2022-10-17T00:06:34;13.40;99.90
12720;DHT22;6424;48.520;11.228;2022-10-17T00:09:15;13.40;99.90
12720;DHT22;6424;48.520;11.228;2022-10-17T00:11:56;13.30;99.90
12720;DHT22;6424;48.520;11.228;2022-10-17T00:14:37;13.30;99.90
12720;DHT22;6424;48.520;11.228;2022-10-17T00:17:18;13.20;99.90
12720;DHT22;6424;48.520;11.228;2022-10-17T00:20:00;13.20;99.90
12720;DHT22;6424;48.520;11.228;2022-10-17T00:22:41;13.10;99.90
12720;DHT22;6424;48.520;11.228;2022-10-17T00:25:22;13.10;99.90
12720;DHT22;6424;48.520;11.228;2022-10-17T00:28:03;13.10;99.90
12720;DHT22;6424;48.520;11.228;2022-10-17T00:30:44;13.00;99.90
12720;DHT22;6424;48.520;11.228;2022-10-17T00:33:25;13.00;99.90
12720;DHT22;6424;48.520;11.228;2022-10-17T00:36:11;13.00;99.90
12720;DHT22;6424;48.520;11.228;2022-10-17T00:38:57;12.90;99.90
12720;DHT22;6424;48.520;11.228;2022-10-17T00:41:38;12.90;99.90
12720;DHT22;6424;48.520;11.228;2022-10-17T00:47:03;12.80;99.90
12720;DHT22;6424;48.520;11.228;2022-10-17T00:49:46;12.80;99.90
12720;DHT22;6424;48.520;11.228;2022-10-17T00:52:29;12.80;99.90
12720;DHT22;6424;48.520;11.228;2022-10-17T00:55:32;12.70;99.90
12720;DHT22;6424;48.520;11.228;2022-10-17T00:58:14;12.70;99.90
12720;DHT22;6424;48.520;11.228;2022-10-17T01:00:56;12.70;99.90
12720;DHT22;6424;48.520;11.228;2022-10-17T01:03:22;12.70;99.90
12720;DHT22;6424;48.520;11.228;2022-10-17T01:06:03;12.60;99.90
12720;DHT22;6424;48.520;11.228;2022-10-17T01:08:44;12.60;99.90
12720;DHT22;6424;48.520;11.228;2022-10-17T01:29:32;12.30;99.90
12720;DHT22;6424;48.520;11.228;2022-10-17T01:35:24;12.20;99.90
12720;DHT22;6424;48.520;11.228;2022-10-17T01:40:59;12.10;99.90
12720;DHT22;6424;48.520;11.228;2022-10-17T01:43:58;12.10;99.90
12720;DHT22;6424;48.520;11.228;2022-10-17T01:46:46;12.10;99.90
12720;DHT22;6424;48.520;11.228;2022-10-17T01:49:16;12.00;99.90
12720;DHT22;6424;48.520;11.228;2022-10-17T01:52:03;12.00;99.90
12720;DHT22;6424;48.520;11.228;2022-10-17T01:54:50;11.90;99.90
12720;DHT22;6424;48.520;11.228;2022-10-17T01:57:38;11.90;99.90
12720;DHT22;6424;48.520;11.228;2022-10-17T02:00:08;11.90;99.90
12720;DHT22;6424;48.520;11.228;2022-10-17T02:02:57;11.80;99.90
12720;DHT22;6424;48.520;11.228;2022-10-17T02:05:27;11.80;99.90
12720;DHT22;6424;48.520;11.228;2022-10-17T02:08:08;11.70;99.90
12720;DHT22;6424;48.520;11.228;2022-10-17T02:11:03;11.70;99.90
12720;DHT22;6424;48.520;11.228;2022-10-17T02:22:43;11.60;99.90
12720;DHT22;6424;48.520;11.228;2022-10-17T02:28:42;11.60;99.90
12720;DHT22;6424;48.520;11.228;2022-10-17T02:31:30;11.60;99.90
12720;DHT22;6424;48.520;11.228;2022-10-17T02:34:15;11.50;99.90
12720;DHT22;6424;48.520;11.228;2022-10-17T02:36:59;11.50;99.90
12720;DHT22;6424;48.520;11.228;2022-10-17T02:39:41;11.60;99.90
12720;DHT22;6424;48.520;11.228;2022-10-17T02:42:24;11.50;99.90
12720;DHT22;6424;48.520;11.228;2022-10-17T02:45:06;11.60;99.90
12720;DHT22;6424;48.520;11.228;2022-10-17T02:51:16;11.50;99.90
12720;DHT22;6424;48.520;11.228;2022-10-17T02:53:48;11.40;99.90
12720;DHT22;6424;48.520;11.228;2022-10-17T02:56:18;11.40;99.90
12720;DHT22;6424;48.520;11.228;2022-10-17T02:59:00;11.40;99.90
12720;DHT22;6424;48.520;11.228;2022-10-17T03:01:43;11.30;99.90
12720;DHT22;6424;48.520;11.228;2022-10-17T03:04:23;11.30;99.90
12720;DHT22;6424;48.520;11.228;2022-10-17T03:06:49;11.30;99.90
12720;DHT22;6424;48.520;11.228;2022-10-17T03:09:30;11.20;99.90
12720;DHT22;6424;48.520;11.228;2022-10-17T03:12:11;11.10;99.90
12720;DHT22;6424;48.520;11.228;2022-10-17T03:14:51;11.10;99.90
12720;DHT22;6424;48.520;11.228;2022-10-17T03:17:32;11.10;99.90
12720;DHT22;6424;48.520;11.228;2022-10-17T03:20:13;11.10;99.90
12720;DHT22;6424;48.520;11.228;2022-10-17T03:22:54;11.00;99.90
12720;DHT22;6424;48.520;11.228;2022-10-17T03:25:35;11.00;99.90
12720;DHT22;6424;48.520;11.228;2022-10-17T03:28:15;10.90;99.90
12720;DHT22;6424;48.520;11.228;2022-10-17T03:30:56;11.00;99.90
12720;DHT22;6424;48.520;11.228;2022-10-17T03:33:37;10.90;99.90
12720;DHT22;6424;48.520;11.228;2022-10-17T03:36:19;10.90;99.90
12720;DHT22;6424;48.520;11.228;2022-10-17T03:38:59;10.90;99.90
12720;DHT22;6424;48.520;11.228;2022-10-17T03:41:40;10.90;99.90
12720;DHT22;6424;48.520;11.228;2022-10-17T03:44:21;10.90;99.90
12720;DHT22;6424;48.520;11.228;2022-10-17T03:47:02;10.90;99.90
12720;DHT22;6424;48.520;11.228;2022-10-17T03:49:43;10.90;99.90
12720;DHT22;6424;48.520;11.228;2022-10-17T03:52:23;10.90;99.90
12720;DHT22;6424;48.520;11.228;2022-10-17T03:55:04;10.90;99.90
12720;DHT22;6424;48.520;11.228;2022-10-17T03:57:45;10.80;99.90
12720;DHT22;6424;48.520;11.228;2022-10-17T04:00:26;10.80;99.90
12720;DHT22;6424;48.520;11.228;2022-10-17T04:03:07;10.70;99.90
12720;DHT22;6424;48.520;11.228;2022-10-17T04:05:48;10.70;99.90
12720;DHT22;6424;48.520;11.228;2022-10-17T04:08:29;10.70;99.90
12720;DHT22;6424;48.520;11.228;2022-10-17T04:11:14;10.60;99.90
12720;DHT22;6424;48.520;11.228;2022-10-17T04:13:56;10.60;99.90
12720;DHT22;6424;48.520;11.228;2022-10-17T04:16:38;10.60;99.90
12720;DHT22;6424;48.520;11.228;2022-10-17T04:19:18;10.60;99.90
12720;DHT22;6424;48.520;11.228;2022-10-17T04:21:59;10.50;99.90
12720;DHT22;6424;48.520;11.228;2022-10-17T04:24:40;10.40;99.90
12720;DHT22;6424;48.520;11.228;2022-10-17T04:27:21;10.40;99.90
12720;DHT22;6424;48.520;11.228;2022-10-17T04:30:01;10.40;99.90
12720;DHT22;6424;48.520;11.228;2022-10-17T04:32:42;10.40;99.90
12720;DHT22;6424;48.520;11.228;2022-10-17T04:35:23;10.30;99.90
12720;DHT22;6424;48.520;11.228;2022-10-17T04:38:04;10.30;99.90
12720;DHT22;6424;48.520;11.228;2022-10-17T04:40:44;10.30;99.90
12720;DHT22;6424;48.520;11.228;2022-10-17T04:43:25;10.30;99.90
12720;DHT22;6424;48.520;11.228;2022-10-17T04:46:09;10.20;99.90
12720;DHT22;6424;48.520;11.228;2022-10-17T04:48:50;10.20;99.90
12720;DHT22;6424;48.520;11.228;2022-10-17T04:51:31;10.10;99.90
12720;DHT22;6424;48.520;11.228;2022-10-17T04:54:11;10.10;99.90
12720;DHT22;6424;48.520;11.228;2022-10-17T04:56:52;10.10;99.90
12720;DHT22;6424;48.520;11.228;2022-10-17T04:59:18;10.00;99.90
12720;DHT22;6424;48.520;11.228;2022-10-17T05:01:59;10.10;99.90
12720;DHT22;6424;48.520;11.228;2022-10-17T05:04:39;10.00;99.90
12720;DHT22;6424;48.520;11.228;2022-10-17T05:07:20;10.00;99.90
12720;DHT22;6424;48.520;11.228;2022-10-17T05:10:01;10.00;99.90
12720;DHT22;6424;48.520;11.228;2022-10-17T05:12:42;10.00;99.90
12720;DHT22;6424;48.520;11.228;2022-10-17T05:15:22;10.00;99.90
12720;DHT22;6424;48.520;11.228;2022-10-17T05:18:04;10.00;99.90
12720;DHT22;6424;48.520;11.228;2022-10-17T05:20:45;10.00;99.90
12720;DHT22;6424;48.520;11.228;2022-10-17T05:23:28;9.90;99.90
12720;DHT22;6424;48.520;11.228;2022-10-17T05:26:09;9.90;99.90
12720;DHT22;6424;48.520;11.228;2022-10-17T05:28:50;9.90;99.90
12720;DHT22;6424;48.520;11.228;2022-10-17T05:31:31;9.90;99.90
12720;DHT22;6424;48.520;11.228;2022-10-17T05:34:12;9.90;99.90
12720;DHT22;6424;48.520;11.228;2022-10-17T05:36:53;9.80;99.90
12720;DHT22;6424;48.520;11.228;2022-10-17T05:39:34;9.80;99.90
12720;DHT22;6424;48.520;11.228;2022-10-17T05:42:15;9.80;99.90
12720;DHT22;6424;48.520;11.228;2022-10-17T05:44:55;9.80;99.90
12720;DHT22;6424;48.520;11.228;2022-10-17T05:47:36;9.80;99.90
12720;DHT22;6424;48.520;11.228;2022-10-17T05:50:17;9.90;99.90
12720;DHT22;6424;48.520;11.228;2022-10-17T05:53:01;9.90;99.90
12720;DHT22;6424;48.520;11.228;2022-10-17T05:55:41;9.90;99.90
12720;DHT22;6424;48.520;11.228;2022-10-17T05:58:26;9.90;99.90
12720;DHT22;6424;48.520;11.228;2022-10-17T06:01:07;10.00;99.90
12720;DHT22;6424;48.520;11.228;2022-10-17T06:03:48;10.00;99.90
12720;DHT22;6424;48.520;11.228;2022-10-17T06:06:29;10.10;99.90
12720;DHT22;6424;48.520;11.228;2022-10-17T06:09:09;10.10;99.90
12720;DHT22;6424;48.520;11.228;2022-10-17T06:11:50;10.10;99.90
12720;DHT22;6424;48.520;11.228;2022-10-17T06:14:31;10.10;99.90
12720;DHT22;6424;48.520;11.228;2022-10-17T06:17:12;10.10;99.90
12720;DHT22;6424;48.520;11.228;2022-10-17T06:19:52;10.20;99.90
12720;DHT22;6424;48.520;11.228;2022-10-17T06:22:33;10.20;99.90
12720;DHT22;6424;48.520;11.228;2022-10-17T06:25:14;10.30;99.90
12720;DHT22;6424;48.520;11.228;2022-10-17T06:27:54;10.50;99.90
12720;DHT22;6424;48.520;11.228;2022-10-17T06:30:38;10.50;99.90
12720;DHT22;6424;48.520;11.228;2022-10-17T06:33:19;10.60;99.90
12720;DHT22;6424;48.520;11.228;2022-10-17T06:36:01;10.60;99.90
12720;DHT22;6424;48.520;11.228;2022-10-17T06:38:42;10.60;99.90
12720;DHT22;6424;48.520;11.228;2022-10-17T06:41:11;10.70;99.90
12720;DHT22;6424;48.520;11.228;2022-10-17T06:43:53;10.70;99.90
12720;DHT22;6424;48.520;11.228;2022-10-17T06:46:33;10.80;99.90
12720;DHT22;6424;48.520;11.228;2022-10-17T06:49:14;10.90;99.90
12720;DHT22;6424;48.520;11.228;2022-10-17T06:51:55;11.10;99.90
12720;DHT22;6424;48.520;11.228;2022-10-17T06:54:21;11.20;99.90
12720;DHT22;6424;48.520;11.228;2022-10-17T06:57:02;11.30;99.90
12720;DHT22;6424;48.520;11.228;2022-10-17T06:59:42;11.60;99.90
12720;DHT22;6424;48.520;11.228;2022-10-17T07:02:23;12.00;99.90
12720;DHT22;6424;48.520;11.228;2022-10-17T07:05:04;12.40;99.90
12720;DHT22;6424;48.520;11.228;2022-10-17T07:07:45;13.00;99.90
12720;DHT22;6424;48.520;11.228;2022-10-17T07:10:26;13.60;99.90
12720;DHT22;6424;48.520;11.228;2022-10-17T07:13:07;14.00;99.90
12720;DHT22;6424;48.520;11.228;2022-10-17T07:15:48;14.40;99.90
12720;DHT22;6424;48.520;11.228;2022-10-17T07:18:28;14.60;99.90
12720;DHT22;6424;48.520;11.228;2022-10-17T07:21:09;14.80;99.90
12720;DHT22;6424;48.520;11.228;2022-10-17T07:23:50;14.90;99.90
12720;DHT22;6424;48.520;11.228;2022-10-17T07:26:31;14.80;99.90
12720;DHT22;6424;48.520;11.228;2022-10-17T07:29:12;14.60;99.90
12720;DHT22;6424;48.520;11.228;2022-10-17T07:31:53;14.30;99.90
12720;DHT22;6424;48.520;11.228;2022-10-17T07:34:19;14.10;99.90
12720;DHT22;6424;48.520;11.228;2022-10-17T07:37:00;14.10;99.90
12720;DHT22;6424;48.520;11.228;2022-10-17T07:39:41;14.10;99.90
12720;DHT22;6424;48.520;11.228;2022-10-17T07:42:22;14.20;99.90
12720;DHT22;6424;48.520;11.228;2022-10-17T07:45:04;14.30;99.90
12720;DHT22;6424;48.520;11.228;2022-10-17T07:47:45;14.40;99.90
12720;DHT22;6424;48.520;11.228;2022-10-17T07:50:26;14.50;99.90
12720;DHT22;6424;48.520;11.228;2022-10-17T07:52:51;14.60;99.90
12720;DHT22;6424;48.520;11.228;2022-10-17T07:55:32;14.70;99.90
12720;DHT22;6424;48.520;11.228;2022-10-17T07:58:13;15.00;99.90
12720;DHT22;6424;48.520;11.228;2022-10-17T08:00:54;15.20;99.90
12720;DHT22;6424;48.520;11.228;2022-10-17T08:03:35;15.30;99.90
12720;DHT22;6424;48.520;11.228;2022-10-17T08:06:17;15.50;99.90
12720;DHT22;6424;48.520;11.228;2022-10-17T08:08:57;15.60;99.90
12720;DHT22;6424;48.520;11.228;2022-10-17T08:11:39;15.60;99.90
12720;DHT22;6424;48.520;11.228;2022-10-17T08:14:19;15.70;99.90
12720;DHT22;6424;48.520;11.228;2022-10-17T08:17:00;15.80;99.90
12720;DHT22;6424;48.520;11.228;2022-10-17T08:19:41;15.90;99.90
12720;DHT22;6424;48.520;11.228;2022-10-17T08:22:22;15.90;99.90
12720;DHT22;6424;48.520;11.228;2022-10-17T08:25:03;16.00;99.90
12720;DHT22;6424;48.520;11.228;2022-10-17T08:27:44;16.20;99.90
12720;DHT22;6424;48.520;11.228;2022-10-17T08:30:25;16.20;99.90
12720;DHT22;6424;48.520;11.228;2022-10-17T08:33:06;16.30;99.90
12720;DHT22;6424;48.520;11.228;2022-10-17T08:35:46;16.40;99.90
12720;DHT22;6424;48.520;11.228;2022-10-17T08:38:28;16.50;99.90
12720;DHT22;6424;48.520;11.228;2022-10-17T08:41:20;16.50;99.90
12720;DHT22;6424;48.520;11.228;2022-10-17T08:47:01;16.50;99.90
12720;DHT22;6424;48.520;11.228;2022-10-17T08:49:52;16.60;99.90
12720;DHT22;6424;48.520;11.228;2022-10-17T08:55:48;16.50;99.90
12720;DHT22;6424;48.520;11.228;2022-10-17T08:58:32;16.60;99.90
12720;DHT22;6424;48.520;11.228;2022-10-17T09:13:36;17.10;99.90
12720;DHT22;6424;48.520;11.228;2022-10-17T09:19:25;17.40;99.90
12720;DHT22;6424;48.520;11.228;2022-10-17T09:22:32;17.50;99.90
12720;DHT22;6424;48.520;11.228;2022-10-17T09:25:16;17.60;99.90
12720;DHT22;6424;48.520;11.228;2022-10-17T09:28:32;17.70;99.90
12720;DHT22;6424;48.520;11.228;2022-10-17T09:34:01;17.70;99.90
12720;DHT22;6424;48.520;11.228;2022-10-17T09:36:42;17.70;99.90
12720;DHT22;6424;48.520;11.228;2022-10-17T09:39:23;17.60;99.90
12720;DHT22;6424;48.520;11.228;2022-10-17T09:42:11;17.60;99.90
12720;DHT22;6424;48.520;11.228;2022-10-17T09:50:33;17.60;99.90
12720;DHT22;6424;48.520;11.228;2022-10-17T09:53:22;17.60;99.90
12720;DHT22;6424;48.520;11.228;2022-10-17T09:56:09;17.70;99.90
12720;DHT22;6424;48.520;11.228;2022-10-17T09:58:43;17.70;99.90
12720;DHT22;6424;48.520;11.228;2022-10-17T10:01:29;17.80;99.90
12720;DHT22;6424;48.520;11.228;2022-10-17T10:04:15;17.80;99.90
12720;DHT22;6424;48.520;11.228;2022-10-17T10:07:02;17.90;99.90
12720;DHT22;6424;48.520;11.228;2022-10-17T10:09:48;18.10;99.90
12720;DHT22;6424;48.520;11.228;2022-10-17T10:12:35;18.20;99.90
12720;DHT22;6424;48.520;11.228;2022-10-17T10:15:35;18.30;99.90
12720;DHT22;6424;48.520;11.228;2022-10-17T10:18:32;18.40;99.90
12720;DHT22;6424;48.520;11.228;2022-10-17T10:21:20;18.40;99.90
12720;DHT22;6424;48.520;11.228;2022-10-17T10:24:19;18.40;99.90
12720;DHT22;6424;48.520;11.228;2022-10-17T10:26:46;18.40;99.90
12720;DHT22;6424;48.520;11.228;2022-10-17T10:32:24;18.40;99.90
12720;DHT22;6424;48.520;11.228;2022-10-17T10:35:21;18.50;99.90
12720;DHT22;6424;48.520;11.228;2022-10-17T10:38:12;18.50;99.90
12720;DHT22;6424;48.520;11.228;2022-10-17T10:41:08;18.60;99.90
12720;DHT22;6424;48.520;11.228;2022-10-17T10:43:50;18.70;99.90
12720;DHT22;6424;48.520;11.228;2022-10-17T10:46:33;18.60;99.90
12720;DHT22;6424;48.520;11.228;2022-10-17T10:49:30;18.50;99.90
12720;DHT22;6424;48.520;11.228;2022-10-17T10:52:28;18.60;99.90
12720;DHT22;6424;48.520;11.228;2022-10-17T10:57:48;18.90;99.90
12720;DHT22;6424;48.520;11.228;2022-10-17T11:00:31;19.10;99.90
12720;DHT22;6424;48.520;11.228;2022-10-17T11:03:19;19.10;99.90
12720;DHT22;6424;48.520;11.228;2022-10-17T11:06:10;19.10;99.90
12720;DHT22;6424;48.520;11.228;2022-10-17T11:09:22;19.20;99.90
12720;DHT22;6424;48.520;11.228;2022-10-17T11:12:20;19.20;99.90
12720;DHT22;6424;48.520;11.228;2022-10-17T11:21:18;19.40;99.90
12720;DHT22;6424;48.520;11.228;2022-10-17T11:24:11;19.50;99.90
12720;DHT22;6424;48.520;11.228;2022-10-17T11:26:59;19.70;99.90
12720;DHT22;6424;48.520;11.228;2022-10-17T11:29:41;19.80;99.90
12720;DHT22;6424;48.520;11.228;2022-10-17T11:35:40;20.00;99.90
12720;DHT22;6424;48.520;11.228;2022-10-17T11:38:44;20.20;99.90
12720;DHT22;6424;48.520;11.228;2022-10-17T11:41:38;20.10;99.90
12720;DHT22;6424;48.520;11.228;2022-10-17T11:44:38;20.20;99.90
12720;DHT22;6424;48.520;11.228;2022-10-17T11:47:30;20.30;99.90
12720;DHT22;6424;48.520;11.228;2022-10-17T11:50:34;20.40;99.90
12720;DHT22;6424;48.520;11.228;2022-10-17T11:53:19;20.50;99.90
12720;DHT22;6424;48.520;11.228;2022-10-17T11:56:01;20.60;99.90
12720;DHT22;6424;48.520;11.228;2022-10-17T11:58:49;20.70;99.90
12720;DHT22;6424;48.520;11.228;2022-10-17T12:01:43;20.90;99.90
12720;DHT22;6424;48.520;11.228;2022-10-17T12:07:42;21.00;99.90
12720;DHT22;6424;48.520;11.228;2022-10-17T12:27:39;21.10;99.90
12720;DHT22;6424;48.520;11.228;2022-10-17T12:30:24;21.10;99.90
12720;DHT22;6424;48.520;11.228;2022-10-17T12:33:16;21.10;99.90
12720;DHT22;6424;48.520;11.228;2022-10-17T12:41:51;21.30;99.90
12720;DHT22;6424;48.520;11.228;2022-10-17T12:47:36;21.30;99.90
12720;DHT22;6424;48.520;11.228;2022-10-17T12:54:05;21.40;99.90
12720;DHT22;6424;48.520;11.228;2022-10-17T12:56:48;21.50;99.90
12720;DHT22;6424;48.520;11.228;2022-10-17T12:59:29;21.50;99.90
12720;DHT22;6424;48.520;11.228;2022-10-17T13:02:18;21.50;99.90
12720;DHT22;6424;48.520;11.228;2022-10-17T13:05:13;21.50;99.90
12720;DHT22;6424;48.520;11.228;2022-10-17T13:07:58;21.30;99.90
12720;DHT22;6424;48.520;11.228;2022-10-17T13:10:39;21.30;99.90
12720;DHT22;6424;48.520;11.228;2022-10-17T13:13:25;21.30;99.90
12720;DHT22;6424;48.520;11.228;2022-10-17T13:15:58;21.40;99.90
12720;DHT22;6424;48.520;11.228;2022-10-17T13:18:39;21.40;99.90
12720;DHT22;6424;48.520;11.228;2022-10-17T13:21:14;21.50;99.90
12720;DHT22;6424;48.520;11.228;2022-10-17T13:23:55;21.50;99.90
12720;DHT22;6424;48.520;11.228;2022-10-17T13:26:36;21.60;99.90
12720;DHT22;6424;48.520;11.228;2022-10-17T13:29:12;21.50;99.90
12720;DHT22;6424;48.520;11.228;2022-10-17T13:31:56;21.60;99.90
12720;DHT22;6424;48.520;11.228;2022-10-17T13:34:38;21.50;99.90
12720;DHT22;6424;48.520;11.228;2022-10-17T13:37:19;21.40;99.90
12720;DHT22;6424;48.520;11.228;2022-10-17T13:40:00;21.30;99.90
12720;DHT22;6424;48.520;11.228;2022-10-17T13:42:29;21.30;99.90
12720;DHT22;6424;48.520;11.228;2022-10-17T13:48:25;21.20;99.90
12720;DHT22;6424;48.520;11.228;2022-10-17T13:51:06;21.10;99.90
12720;DHT22;6424;48.520;11.228;2022-10-17T13:53:47;21.10;99.90
12720;DHT22;6424;48.520;11.228;2022-10-17T13:56:28;21.00;99.90
12720;DHT22;6424;48.520;11.228;2022-10-17T13:59:23;20.90;99.90
12720;DHT22;6424;48.520;11.228;2022-10-17T14:02:05;20.90;99.90
12720;DHT22;6424;48.520;11.228;2022-10-17T14:07:56;20.80;99.90
12720;DHT22;6424;48.520;11.228;2022-10-17T14:10:40;20.70;99.90
12720;DHT22;6424;48.520;11.228;2022-10-17T14:13:24;20.60;99.90
12720;DHT22;6424;48.520;11.228;2022-10-17T14:16:06;20.70;99.90
12720;DHT22;6424;48.520;11.228;2022-10-17T14:18:49;20.70;99.90
12720;DHT22;6424;48.520;11.228;2022-10-17T14:51:15;20.40;99.90
12720;DHT22;6424;48.520;11.228;2022-10-17T14:54:19;20.30;99.90
12720;DHT22;6424;48.520;11.228;2022-10-17T14:57:12;20.30;99.90
12720;DHT22;6424;48.520;11.228;2022-10-17T14:59:55;20.30;99.90
12720;DHT22;6424;48.520;11.228;2022-10-17T15:02:36;20.30;99.90
12720;DHT22;6424;48.520;11.228;2022-10-17T15:05:17;20.30;99.90
12720;DHT22;6424;48.520;11.228;2022-10-17T15:07:59;20.30;99.90
12720;DHT22;6424;48.520;11.228;2022-10-17T15:10:40;20.30;99.90
12720;DHT22;6424;48.520;11.228;2022-10-17T15:13:21;20.20;99.90
12720;DHT22;6424;48.520;11.228;2022-10-17T15:16:09;20.20;99.90
12720;DHT22;6424;48.520;11.228;2022-10-17T15:18:53;20.10;99.90
12720;DHT22;6424;48.520;11.228;2022-10-17T15:21:34;20.10;99.90
12720;DHT22;6424;48.520;11.228;2022-10-17T15:24:15;20.00;99.90
12720;DHT22;6424;48.520;11.228;2022-10-17T15:26:56;20.00;99.90
12720;DHT22;6424;48.520;11.228;2022-10-17T15:29:37;19.90;99.90
12720;DHT22;6424;48.520;11.228;2022-10-17T15:32:17;19.90;99.90
12720;DHT22;6424;48.520;11.228;2022-10-17T15:34:58;19.80;99.90
12720;DHT22;6424;48.520;11.228;2022-10-17T15:37:39;19.70;99.90
12720;DHT22;6424;48.520;11.228;2022-10-17T15:40:27;19.70;99.90
12720;DHT22;6424;48.520;11.228;2022-10-17T15:43:08;19.60;99.90
12720;DHT22;6424;48.520;11.228;2022-10-17T15:45:49;19.50;99.90
12720;DHT22;6424;48.520;11.228;2022-10-17T15:48:30;19.40;99.90
12720;DHT22;6424;48.520;11.228;2022-10-17T15:51:11;19.40;99.90
12720;DHT22;6424;48.520;11.228;2022-10-17T15:53:52;19.20;99.90
12720;DHT22;6424;48.520;11.228;2022-10-17T15:56:36;19.10;99.90
12720;DHT22;6424;48.520;11.228;2022-10-17T15:59:20;19.00;99.90
12720;DHT22;6424;48.520;11.228;2022-10-17T16:02:02;18.80;99.90
12720;DHT22;6424;48.520;11.228;2022-10-17T16:04:43;18.70;99.90
12720;DHT22;6424;48.520;11.228;2022-10-17T16:07:24;18.60;99.90
12720;DHT22;6424;48.520;11.228;2022-10-17T16:10:05;18.40;99.90
12720;DHT22;6424;48.520;11.228;2022-10-17T16:12:46;18.30;99.90
12720;DHT22;6424;48.520;11.228;2022-10-17T16:15:29;18.10;99.90
12720;DHT22;6424;48.520;11.228;2022-10-17T16:18:10;18.00;99.90
12720;DHT22;6424;48.520;11.228;2022-10-17T16:20:50;17.90;99.90
12720;DHT22;6424;48.520;11.228;2022-10-17T16:23:31;17.80;99.90
12720;DHT22;6424;48.520;11.228;2022-10-17T16:26:12;17.60;99.90
12720;DHT22;6424;48.520;11.228;2022-10-17T16:28:55;17.50;99.90
12720;DHT22;6424;48.520;11.228;2022-10-17T16:31:41;17.40;99.90
12720;DHT22;6424;48.520;11.228;2022-10-17T16:34:22;17.20;99.90
12720;DHT22;6424;48.520;11.228;2022-10-17T16:37:02;17.10;99.90
12720;DHT22;6424;48.520;11.228;2022-10-17T16:39:43;17.00;99.90
12720;DHT22;6424;48.520;11.228;2022-10-17T16:42:28;16.90;99.90
12720;DHT22;6424;48.520;11.228;2022-10-17T16:45:18;16.80;99.90
12720;DHT22;6424;48.520;11.228;2022-10-17T16:47:59;16.70;99.90
12720;DHT22;6424;48.520;11.228;2022-10-17T16:50:39;16.70;99.90
12720;DHT22;6424;48.520;11.228;2022-10-17T16:53:20;16.60;99.90
12720;DHT22;6424;48.520;11.228;2022-10-17T16:56:02;16.50;99.90
12720;DHT22;6424;48.520;11.228;2022-10-17T16:58:43;16.40;99.90
12720;DHT22;6424;48.520;11.228;2022-10-17T17:01:26;16.30;99.90
12720;DHT22;6424;48.520;11.228;2022-10-17T17:03:54;16.20;99.90
12720;DHT22;6424;48.520;11.228;2022-10-17T17:06:35;16.20;99.90
12720;DHT22;6424;48.520;11.228;2022-10-17T17:09:16;16.10;99.90
12720;DHT22;6424;48.520;11.228;2022-10-17T17:11:57;16.10;99.90
12720;DHT22;6424;48.520;11.228;2022-10-17T17:14:23;16.10;99.90
12720;DHT22;6424;48.520;11.228;2022-10-17T17:17:03;16.10;99.90
12720;DHT22;6424;48.520;11.228;2022-10-17T17:19:29;16.00;99.90
12720;DHT22;6424;48.520;11.228;2022-10-17T17:22:10;16.00;99.90
12720;DHT22;6424;48.520;11.228;2022-10-17T17:24:50;15.90;99.90
12720;DHT22;6424;48.520;11.228;2022-10-17T17:27:31;15.90;99.90
12720;DHT22;6424;48.520;11.228;2022-10-17T17:30:12;15.80;99.90
12720;DHT22;6424;48.520;11.228;2022-10-17T17:32:53;15.70;99.90
12720;DHT22;6424;48.520;11.228;2022-10-17T17:35:33;15.70;99.90
12720;DHT22;6424;48.520;11.228;2022-10-17T17:38:18;15.70;99.90
12720;DHT22;6424;48.520;11.228;2022-10-17T17:40:58;15.60;99.90
12720;DHT22;6424;48.520;11.228;2022-10-17T17:43:41;15.60;99.90
12720;DHT22;6424;48.520;11.228;2022-10-17T17:46:23;15.50;99.90
12720;DHT22;6424;48.520;11.228;2022-10-17T17:49:04;15.50;99.90
12720;DHT22;6424;48.520;11.228;2022-10-17T17:51:30;15.50;99.90
12720;DHT22;6424;48.520;11.228;2022-10-17T17:54:11;15.40;99.90
12720;DHT22;6424;48.520;11.228;2022-10-17T17:56:52;15.40;99.90
12720;DHT22;6424;48.520;11.228;2022-10-17T17:59:32;15.30;99.90
12720;DHT22;6424;48.520;11.228;2022-10-17T18:02:13;15.30;99.90
12720;DHT22;6424;48.520;11.228;2022-10-17T18:04:39;15.30;99.90
12720;DHT22;6424;48.520;11.228;2022-10-17T18:07:05;15.20;99.90
12720;DHT22;6424;48.520;11.228;2022-10-17T18:09:45;15.20;99.90
12720;DHT22;6424;48.520;11.228;2022-10-17T18:12:28;15.20;99.90
12720;DHT22;6424;48.520;11.228;2022-10-17T18:15:10;15.20;99.90
12720;DHT22;6424;48.520;11.228;2022-10-17T18:17:51;15.20;99.90
12720;DHT22;6424;48.520;11.228;2022-10-17T18:20:32;15.20;99.90
12720;DHT22;6424;48.520;11.228;2022-10-17T18:23:12;15.20;99.90
12720;DHT22;6424;48.520;11.228;2022-10-17T18:25:59;15.10;99.90
12720;DHT22;6424;48.520;11.228;2022-10-17T18:31:21;15.10;99.90
12720;DHT22;6424;48.520;11.228;2022-10-17T18:34:04;15.10;99.90
12720;DHT22;6424;48.520;11.228;2022-10-17T18:36:31;15.10;99.90
12720;DHT22;6424;48.520;11.228;2022-10-17T18:38:59;15.10;99.90
12720;DHT22;6424;48.520;11.228;2022-10-17T18:41:40;15.10;99.90
12720;DHT22;6424;48.520;11.228;2022-10-17T18:44:21;15.10;99.90
12720;DHT22;6424;48.520;11.228;2022-10-17T18:47:02;15.10;99.90
12720;DHT22;6424;48.520;11.228;2022-10-17T18:49:28;15.10;99.90
12720;DHT22;6424;48.520;11.228;2022-10-17T18:52:08;15.10;99.90
12720;DHT22;6424;48.520;11.228;2022-10-17T18:54:49;15.10;99.90
12720;DHT22;6424;48.520;11.228;2022-10-17T18:57:30;15.10;99.90
12720;DHT22;6424;48.520;11.228;2022-10-17T19:00:11;15.10;99.90
12720;DHT22;6424;48.520;11.228;2022-10-17T19:02:52;15.10;99.90
12720;DHT22;6424;48.520;11.228;2022-10-17T19:05:33;15.10;99.90
12720;DHT22;6424;48.520;11.228;2022-10-17T19:08:17;15.00;99.90
12720;DHT22;6424;48.520;11.228;2022-10-17T19:11:06;15.00;99.90
12720;DHT22;6424;48.520;11.228;2022-10-17T19:13:48;15.00;99.90
12720;DHT22;6424;48.520;11.228;2022-10-17T19:16:31;14.90;99.90
12720;DHT22;6424;48.520;11.228;2022-10-17T19:19:19;14.80;99.90
12720;DHT22;6424;48.520;11.228;2022-10-17T19:22:00;14.70;99.90
12720;DHT22;6424;48.520;11.228;2022-10-17T19:24:42;14.60;99.90
12720;DHT22;6424;48.520;11.228;2022-10-17T19:27:23;14.50;99.90
12720;DHT22;6424;48.520;11.228;2022-10-17T19:30:04;14.40;99.90
12720;DHT22;6424;48.520;11.228;2022-10-17T19:32:45;14.40;99.90
12720;DHT22;6424;48.520;11.228;2022-10-17T19:35:27;14.30;99.90
12720;DHT22;6424;48.520;11.228;2022-10-17T19:37:53;14.20;99.90
12720;DHT22;6424;48.520;11.228;2022-10-17T19:40:39;14.30;99.90
12720;DHT22;6424;48.520;11.228;2022-10-17T19:43:20;14.30;99.90
12720;DHT22;6424;48.520;11.228;2022-10-17T19:46:03;14.30;99.90